Time;durP1;ratioP1;P1;durP2;ratioP2;P2;SDS_P1;SDS_P2;PMS_P1;PMS_P2;Temp;Humidity;BMP_temperature;BMP_pressure;BME280_temperature;BME280_humidity;BME280_pressure;Samples;Min_cycle;Max_cycle;Signal;HPM_P1;HPM_P2
2021/08/18 00:00:48;;;;;;;23.73;17.75;;;14.40;99.90;;;15.50;100.00;100487.63;6108960;23;20014;-88
2021/08/18 00:03:16;;;;;;;25.40;16.63;;;14.40;99.90;;;15.55;100.00;100487.22;6108955;23;20010;-87
2021/08/18 00:05:44;;;;;;;25.40;17.70;;;14.40;99.90;;;15.53;100.00;100486.00;6107800;23;20428;-89
2021/08/18 00:08:12;;;;;;;23.85;16.48;;;14.40;99.90;;;15.54;100.00;100493.25;6133692;23;20371;-88
2021/08/18 00:10:41;;;;;;;23.20;16.48;;;14.40;99.90;;;15.56;100.00;100488.03;6107093;23;20017;-91
2021/08/18 00:13:11;;;;;;;25.20;16.50;;;14.50;99.90;;;15.57;100.00;100489.66;6114863;23;20037;-88
2021/08/18 00:15:40;;;;;;;22.83;16.45;;;14.40;99.90;;;15.57;100.00;100484.81;6145438;23;20001;-88
2021/08/18 00:18:08;;;;;;;25.10;16.92;;;14.40;99.90;;;15.61;100.00;100482.00;6114540;23;20377;-89
2021/08/18 00:20:35;;;;;;;30.77;19.50;;;14.40;99.90;;;15.61;100.00;100482.00;6134210;23;20002;-86
2021/08/18 00:23:02;;;;;;;29.75;19.92;;;14.50;99.90;;;15.59;100.00;100478.78;6131089;23;20017;-89
2021/08/18 00:25:28;;;;;;;27.65;19.02;;;14.40;99.90;;;15.59;100.00;100479.59;6130523;23;20333;-88
2021/08/18 00:27:55;;;;;;;34.00;22.40;;;14.40;99.90;;;15.58;100.00;100480.78;6130222;23;20006;-89
2021/08/18 00:30:22;;;;;;;31.98;21.40;;;14.50;99.90;;;15.61;100.00;100480.00;6109500;23;20037;-87
2021/08/18 00:32:48;;;;;;;36.83;23.30;;;14.50;99.90;;;15.59;100.00;100481.59;6114977;23;20010;-87
2021/08/18 00:35:13;;;;;;;36.22;24.08;;;14.50;99.90;;;15.59;100.00;100473.97;6116974;23;20048;-89
2021/08/18 00:37:39;;;;;;;37.55;24.27;;;14.50;99.90;;;15.62;100.00;100478.00;6116708;23;20006;-88
2021/08/18 00:40:07;;;;;;;35.70;23.88;;;14.50;99.90;;;15.67;100.00;100477.59;6117512;23;20006;-88
2021/08/18 00:42:34;;;;;;;38.55;24.52;;;14.50;99.90;;;15.63;100.00;100480.44;6109772;23;20006;-91
2021/08/18 00:45:00;;;;;;;34.60;22.65;;;14.50;99.90;;;15.67;100.00;100481.22;6134102;23;20093;-90
2021/08/18 00:47:26;;;;;;;40.10;26.00;;;14.50;99.90;;;15.62;100.00;100469.56;6105343;23;20010;-87
2021/08/18 00:49:51;;;;;;;44.92;26.67;;;14.50;99.90;;;15.64;100.00;100476.38;6128351;23;20388;-88
2021/08/18 00:52:17;;;;;;;40.78;26.95;;;14.50;99.90;;;15.64;100.00;100484.03;6127770;23;20432;-88
2021/08/18 00:54:43;;;;;;;36.28;23.38;;;14.50;99.90;;;15.68;100.00;100480.03;6102336;23;20013;-88
2021/08/18 00:57:09;;;;;;;35.88;23.55;;;14.50;99.90;;;15.64;100.00;100472.75;6129546;23;20009;-86
2021/08/18 00:59:35;;;;;;;36.45;23.83;;;14.50;99.90;;;15.68;100.00;100473.59;6128753;23;20012;-86
2021/08/18 01:02:04;;;;;;;36.45;22.75;;;14.50;99.90;;;15.72;100.00;100468.78;6129034;23;20040;-87
2021/08/18 01:04:30;;;;;;;26.58;19.02;;;14.50;99.90;;;15.66;100.00;100471.19;6105732;23;20010;-88
2021/08/18 01:06:56;;;;;;;27.10;18.55;;;14.50;99.90;;;15.67;100.00;100469.97;6104943;23;20061;-89
2021/08/18 01:09:22;;;;;;;30.15;19.70;;;14.50;99.90;;;15.70;100.00;100471.19;6130024;23;20013;-89
2021/08/18 01:11:52;;;;;;;28.77;18.95;;;14.50;99.90;;;15.67;100.00;100477.59;6103116;23;20381;-89
2021/08/18 01:14:20;;;;;;;30.95;19.85;;;14.50;99.90;;;15.69;100.00;100472.41;6104194;23;20006;-89
2021/08/18 01:16:49;;;;;;;34.22;22.42;;;14.60;99.90;;;15.63;100.00;100465.53;6103223;23;20074;-87
2021/08/18 01:19:19;;;;;;;31.98;21.48;;;14.50;99.90;;;15.67;100.00;100469.97;6129664;23;20002;-87
2021/08/18 01:21:49;;;;;;;32.45;19.88;;;14.50;99.90;;;15.70;100.00;100469.16;6103299;23;20403;-90
2021/08/18 01:24:18;;;;;;;32.95;22.02;;;14.50;99.90;;;15.67;100.00;100469.16;6131087;23;20069;-87
2021/08/18 01:26:45;;;;;;;30.95;21.83;;;14.50;99.90;;;15.71;100.00;100469.97;6104461;23;20440;-88
2021/08/18 01:29:13;;;;;;;33.92;22.23;;;14.50;99.90;;;15.71;100.00;100479.25;6133567;23;20064;-88
2021/08/18 01:31:42;;;;;;;32.60;21.35;;;14.60;99.90;;;15.72;100.00;100471.59;6120419;23;20009;-89
2021/08/18 01:34:08;;;;;;;35.65;21.77;;;14.50;99.90;;;15.69;100.00;100484.47;6105228;23;20010;-86
2021/08/18 01:36:37;;;;;;;36.03;23.27;;;14.60;99.90;;;15.64;100.00;100467.13;6103818;23;20462;-86
2021/08/18 01:39:09;;;;;;;34.10;20.95;;;14.50;99.90;;;15.72;100.00;100469.59;6104180;23;20009;-87
2021/08/18 01:41:36;;;;;;;35.08;22.38;;;14.50;99.90;;;15.75;100.00;100470.81;6103401;23;20098;-86
2021/08/18 01:44:02;;;;;;;37.80;23.95;;;14.50;99.90;;;15.75;100.00;100470.81;6103288;23;20014;-87
2021/08/18 01:46:28;;;;;;;33.60;22.35;;;14.50;99.90;;;15.75;100.00;100468.00;6129001;23;20009;-87
2021/08/18 01:48:54;;;;;;;35.03;23.15;;;14.50;99.90;;;15.77;100.00;100469.19;6130210;23;20173;-88
2021/08/18 01:51:21;;;;;;;34.30;23.52;;;14.60;99.90;;;15.71;100.00;100469.97;6103618;23;20018;-88
2021/08/18 01:53:48;;;;;;;38.35;23.13;;;14.50;99.90;;;15.75;100.00;100479.25;6129148;23;20351;-88
2021/08/18 01:56:19;;;;;;;32.33;22.20;;;14.50;99.90;;;15.80;100.00;100479.66;6103060;23;20010;-86
2021/08/18 01:58:49;;;;;;;38.35;24.63;;;14.50;99.90;;;15.78;100.00;100479.28;6103571;23;20009;-87
2021/08/18 02:01:16;;;;;;;37.28;23.60;;;14.60;99.90;;;15.81;100.00;100480.47;6127268;23;20010;-88
2021/08/18 02:03:43;;;;;;;35.10;23.38;;;14.60;99.90;;;15.83;100.00;100480.88;6104080;23;20050;-86
2021/08/18 02:06:09;;;;;;;33.47;24.08;;;14.60;99.90;;;15.79;100.00;100480.88;6102986;23;20021;-86
2021/08/18 02:08:38;;;;;;;37.63;25.08;;;14.60;99.90;;;15.76;100.00;100486.50;6128190;23;20013;-86
2021/08/18 02:11:05;;;;;;;38.33;25.10;;;14.60;99.90;;;15.75;100.00;100484.88;6129636;23;20006;-88
2021/08/18 02:13:34;;;;;;;33.92;24.25;;;14.60;99.90;;;15.75;100.00;100493.34;6128235;23;20030;-86
2021/08/18 02:16:00;;;;;;;37.75;25.63;;;14.50;99.90;;;15.77;100.00;100488.09;6129019;23;20451;-87
2021/08/18 02:18:26;;;;;;;40.83;26.48;;;14.50;99.90;;;15.72;100.00;100494.13;6103857;23;20005;-89
2021/08/18 02:20:53;;;;;;;37.88;25.23;;;14.50;99.90;;;15.76;100.00;100486.50;6129622;23;20332;-87
2021/08/18 02:23:25;;;;;;;37.90;25.52;;;14.50;99.90;;;15.74;100.00;100492.53;6128848;23;20006;-87
2021/08/18 02:25:51;;;;;;;37.95;25.45;;;14.50;99.90;;;15.72;100.00;100497.75;6127006;23;20006;-85
2021/08/18 02:28:18;;;;;;;41.15;26.35;;;14.50;99.90;;;15.67;100.00;100495.31;6126964;23;20020;-87
2021/08/18 02:30:45;;;;;;;38.47;26.10;;;14.60;99.90;;;15.74;100.00;100500.16;6103847;23;20010;-88
2021/08/18 02:33:11;;;;;;;38.22;26.15;;;14.60;99.90;;;15.79;100.00;100489.34;6129320;23;20467;-87
2021/08/18 02:35:38;;;;;;;33.78;23.88;;;14.60;99.90;;;15.80;100.00;100485.28;6105553;23;20025;-87
2021/08/18 02:38:07;;;;;;;40.30;26.73;;;14.60;99.90;;;15.81;100.00;100489.75;6131139;23;20001;-86
2021/08/18 02:40:33;;;;;;;33.17;24.40;;;14.60;99.90;;;15.82;100.00;100494.19;6131535;23;20036;-86
2021/08/18 02:43:00;;;;;;;32.50;23.10;;;14.60;99.90;;;15.81;100.00;100491.75;6130485;23;20017;-89
2021/08/18 02:45:30;;;;;;;33.33;22.27;;;14.60;99.90;;;15.83;100.00;100487.31;6106260;23;20017;-88
2021/08/18 02:47:56;;;;;;;45.08;25.80;;;14.60;99.90;;;15.84;100.00;100485.31;6106337;23;20017;-86
2021/08/18 02:50:26;;;;;;;18.13;14.50;;;14.60;99.90;;;15.80;100.00;100487.31;6129920;23;20010;-87
2021/08/18 02:52:53;;;;;;;16.27;12.23;;;14.60;99.90;;;15.69;100.00;100484.47;6105430;23;20014;-88
2021/08/18 02:55:19;;;;;;;14.10;10.60;;;14.50;99.90;;;15.68;100.00;100482.03;6105979;23;20455;-89
2021/08/18 02:57:48;;;;;;;14.45;10.70;;;14.40;99.90;;;15.67;100.00;100480.41;6106612;23;20387;-86
2021/08/18 03:00:15;;;;;;;13.77;10.48;;;14.40;99.90;;;15.69;100.00;100483.66;6104592;23;20046;-86
2021/08/18 03:02:41;;;;;;;13.68;10.85;;;14.40;99.90;;;15.68;100.00;100488.47;6103461;23;20069;-88
2021/08/18 03:05:10;;;;;;;17.98;13.25;;;14.30;99.90;;;15.67;100.00;100486.03;6106243;23;20012;-89
2021/08/18 03:07:36;;;;;;;19.25;15.38;;;14.30;99.90;;;15.68;100.00;100487.66;6107016;23;20006;-87
2021/08/18 03:10:04;;;;;;;32.55;20.30;;;14.40;99.90;;;15.65;100.00;100480.03;6106939;23;20006;-87
2021/08/18 03:12:30;;;;;;;31.67;22.15;;;14.40;99.90;;;15.72;100.00;100477.22;6106472;23;20020;-90
2021/08/18 03:14:57;;;;;;;35.65;23.58;;;14.40;99.90;;;15.74;100.00;100467.19;6106986;23;20002;-90
2021/08/18 03:17:23;;;;;;;36.55;24.30;;;14.50;99.90;;;15.77;100.00;100476.84;6106403;23;20018;-89
2021/08/18 03:19:49;;;;;;;31.13;22.15;;;14.50;99.90;;;15.81;100.00;100481.28;6131942;23;20308;-87
2021/08/18 03:22:15;;;;;;;28.85;20.27;;;14.60;99.90;;;15.85;100.00;100483.31;6104025;23;20097;-88
2021/08/18 03:24:41;;;;;;;38.40;23.40;;;14.60;99.90;;;15.77;100.00;100485.28;6106118;23;20432;-88
2021/08/18 03:27:07;;;;;;;39.97;25.10;;;14.50;99.90;;;15.79;100.00;100483.72;6104974;23;20010;-87
2021/08/18 03:29:33;;;;;;;36.92;24.80;;;14.60;99.90;;;15.83;100.00;100478.06;6105234;23;20014;-88
2021/08/18 03:31:59;;;;;;;39.75;25.85;;;14.60;99.90;;;15.80;100.00;100482.47;6104757;23;20013;-88
2021/08/18 03:34:26;;;;;;;44.55;25.77;;;14.60;99.90;;;15.83;100.00;100478.88;6103998;23;20013;-88
2021/08/18 03:36:52;;;;;;;42.25;26.08;;;14.60;99.90;;;15.80;100.00;100482.47;6131472;23;20002;-88
2021/08/18 03:39:18;;;;;;;41.55;25.80;;;14.60;99.90;;;15.81;100.00;100486.09;6132593;23;20030;-90
2021/08/18 03:41:45;;;;;;;40.60;27.13;;;14.60;99.90;;;15.83;100.00;100478.88;6104268;23;20006;-84
2021/08/18 03:44:12;;;;;;;42.15;26.65;;;14.60;99.90;;;15.85;100.00;100494.56;6123964;23;20095;-87
2021/08/18 03:46:38;;;;;;;43.10;26.77;;;14.60;99.90;;;15.86;100.00;100482.88;6120987;23;20013;-88
2021/08/18 03:49:04;;;;;;;45.10;28.75;;;14.60;99.90;;;15.86;100.00;100493.38;6138776;23;20002;-89
2021/08/18 03:51:29;;;;;;;42.63;26.80;;;14.60;99.90;;;15.79;100.00;100486.53;6104503;23;20475;-88
2021/08/18 03:53:55;;;;;;;44.15;26.33;;;14.60;99.90;;;15.85;100.00;100483.31;6129613;23;20038;-88
2021/08/18 03:56:21;;;;;;;43.50;25.98;;;14.60;99.90;;;15.78;100.00;100484.91;6129721;23;20009;-87
2021/08/18 03:58:47;;;;;;;43.25;27.00;;;14.60;99.90;;;15.85;100.00;100484.13;6129175;23;20009;-88
2021/08/18 04:01:13;;;;;;;46.22;27.15;;;14.60;99.90;;;15.77;100.00;100474.81;6131115;23;20120;-89
2021/08/18 04:03:39;;;;;;;45.00;26.20;;;14.60;99.90;;;15.83;100.00;100478.88;6102888;23;20014;-89
2021/08/18 04:06:04;;;;;;;39.00;23.67;;;14.60;99.90;;;15.84;100.00;100479.69;6101744;23;20385;-87
2021/08/18 04:08:30;;;;;;;41.50;24.38;;;14.60;99.90;;;15.87;100.00;100483.69;6128313;23;20006;-89
2021/08/18 04:10:57;;;;;;;43.20;25.02;;;14.60;99.90;;;15.80;100.00;100487.31;6102125;23;20023;-88
2021/08/18 04:13:24;;;;;;;43.88;25.92;;;14.60;99.90;;;15.87;100.00;100492.97;6102454;23;20006;-89
2021/08/18 04:15:49;;;;;;;40.67;24.40;;;14.60;99.90;;;15.82;100.00;100490.53;6102181;23;20531;-89
2021/08/18 04:18:15;;;;;;;36.95;22.30;;;14.60;99.90;;;15.88;100.00;100479.69;6101846;23;20033;-87
2021/08/18 04:20:41;;;;;;;44.25;24.95;;;14.60;99.90;;;15.88;100.00;100486.13;6127380;23;20429;-89
2021/08/18 04:23:07;;;;;;;38.40;24.42;;;14.70;99.90;;;15.89;100.00;100490.56;6126626;23;20024;-88
2021/08/18 04:25:33;;;;;;;37.05;23.45;;;14.60;99.90;;;15.88;100.00;100482.50;6101874;23;20097;-87
2021/08/18 04:28:01;;;;;;;39.15;23.92;;;14.70;99.90;;;15.87;100.00;100489.34;6126676;23;20009;-88
2021/08/18 04:30:27;;;;;;;40.47;23.98;;;14.60;99.90;;;15.83;100.00;100481.69;6102322;23;20021;-88
2021/08/18 04:32:56;;;;;;;39.38;25.05;;;14.60;99.90;;;15.79;100.00;100491.34;6102237;23;20348;-87
2021/08/18 04:35:22;;;;;;;40.13;22.88;;;14.60;99.90;;;15.85;100.00;100489.75;6129085;23;20006;-89
2021/08/18 04:37:49;;;;;;;39.45;23.42;;;14.60;99.90;;;15.87;100.00;100492.97;6104152;23;20088;-86
2021/08/18 04:40:17;;;;;;;42.92;23.80;;;14.70;99.90;;;15.88;100.00;100491.78;6129054;23;20002;-88
2021/08/18 04:42:46;;;;;;;40.03;24.38;;;14.70;99.90;;;15.91;100.00;100488.16;6126843;23;20018;-87
2021/08/18 04:45:16;;;;;;;36.78;22.20;;;14.70;99.90;;;15.93;100.00;100496.19;6102556;23;20318;-87
2021/08/18 04:47:43;;;;;;;42.50;24.60;;;14.70;99.90;;;15.86;100.00;100490.56;6102936;23;20405;-87
2021/08/18 04:50:12;;;;;;;41.70;23.23;;;14.70;99.90;;;15.91;100.00;100490.97;6102897;23;20072;-87
2021/08/18 04:52:38;;;;;;;32.95;21.88;;;14.70;99.90;;;15.95;100.00;100493.81;6102621;23;20032;-88
2021/08/18 04:55:06;;;;;;;39.63;24.67;;;14.70;99.90;;;15.93;100.00;100494.19;6102881;23;20041;-86
2021/08/18 04:57:32;;;;;;;37.15;22.95;;;14.70;99.90;;;15.96;100.00;100495.44;6103891;23;20002;-88
2021/08/18 04:59:58;;;;;;;38.15;22.98;;;14.70;99.90;;;15.95;100.00;100488.97;6103531;23;20037;-89
2021/08/18 05:02:23;;;;;;;41.15;24.35;;;14.70;99.90;;;15.89;100.00;100499.03;6103233;23;20022;-88
2021/08/18 05:04:49;;;;;;;37.55;23.17;;;14.70;99.90;;;15.90;100.00;100491.34;6104433;23;20011;-87
2021/08/18 05:07:15;;;;;;;38.78;22.48;;;14.70;99.90;;;15.96;100.00;100499.03;6128928;23;20055;-86
2021/08/18 05:09:41;;;;;;;38.80;24.08;;;14.70;99.90;;;15.98;100.00;100499.44;6104325;23;20075;-87
2021/08/18 05:12:07;;;;;;;38.10;23.05;;;14.70;99.90;;;16.01;100.00;100503.47;6104258;23;20065;-88
2021/08/18 05:14:32;;;;;;;36.30;22.50;;;14.70;99.90;;;16.01;100.00;100498.66;6104054;23;20010;-87
2021/08/18 05:16:58;;;;;;;39.53;23.27;;;14.80;99.90;;;15.96;100.00;100495.44;6104480;23;20006;-89
2021/08/18 05:19:24;;;;;;;37.25;22.75;;;14.80;99.90;;;16.03;100.00;100498.22;6129596;23;20398;-89
2021/08/18 05:21:50;;;;;;;41.25;24.08;;;14.70;99.90;;;15.98;100.00;100496.63;6105766;23;20424;-89
2021/08/18 05:24:17;;;;;;;34.67;23.10;;;14.80;99.90;;;15.97;100.00;100491.38;6104459;23;20013;-87
2021/08/18 05:26:43;;;;;;;37.50;23.58;;;14.80;99.90;;;16.06;100.00;100500.25;6128778;23;20040;-86
2021/08/18 05:29:11;;;;;;;35.85;23.00;;;14.80;99.90;;;16.08;100.00;100500.69;6129831;23;20495;-90
2021/08/18 05:31:39;;;;;;;36.08;22.65;;;14.80;99.90;;;16.02;100.00;100505.88;6103920;23;20014;-87
2021/08/18 05:34:05;;;;;;;31.40;20.63;;;14.80;99.90;;;16.06;100.00;100514.34;6103311;23;20389;-89
2021/08/18 05:36:31;;;;;;;32.35;20.52;;;14.80;99.90;;;16.05;100.00;100510.75;6103797;23;20010;-87
2021/08/18 05:38:56;;;;;;;27.38;18.27;;;14.80;99.90;;;16.10;100.00;100512.34;6103110;23;20006;-87
2021/08/18 05:41:22;;;;;;;29.52;19.17;;;14.80;99.90;;;16.00;100.00;100501.84;6103370;23;20013;-89
2021/08/18 05:43:48;;;;;;;24.30;17.20;;;14.80;99.90;;;16.06;100.00;100501.06;6103380;23;20142;-87
2021/08/18 05:46:14;;;;;;;23.45;17.02;;;14.80;99.90;;;16.10;100.00;100499.06;6129701;23;20006;-86
2021/08/18 05:48:40;;;;;;;22.08;15.38;;;14.90;99.90;;;16.06;100.00;100501.06;6105449;23;20024;-90
2021/08/18 05:51:08;;;;;;;22.27;15.35;;;14.90;99.90;;;16.11;100.00;100495.06;6105242;23;20014;-89
2021/08/18 05:53:34;;;;;;;21.92;15.55;;;14.90;99.90;;;16.09;100.00;100494.63;6131108;23;20068;-90
2021/08/18 09:08:22;;;;;;;7.88;5.25;;;19.60;99.90;;;21.17;72.15;100539.31;6158365;23;20021;-87
2021/08/18 09:11:23;;;;;;;6.22;4.65;;;19.70;99.90;;;21.57;74.17;100549.53;6146306;23;20002;-86
2021/08/18 09:14:01;;;;;;;6.50;4.55;;;20.00;99.90;;;21.72;72.19;100538.69;6136388;23;20009;-89
2021/08/18 09:16:38;;;;;;;6.07;4.63;;;20.10;99.90;;;21.90;69.47;100542.78;6134013;23;20037;-89
2021/08/18 09:19:12;;;;;;;7.70;4.70;;;20.30;99.90;;;21.87;69.83;100542.81;6159088;23;20057;-86
2021/08/18 09:21:45;;;;;;;7.15;5.47;;;20.40;99.90;;;21.88;68.38;100541.59;6158391;23;20011;-88
2021/08/18 09:24:12;;;;;;;6.13;4.32;;;20.50;99.90;;;22.03;68.85;100545.75;6157522;23;20009;-90
2021/08/18 09:26:42;;;;;;;6.30;5.55;;;20.40;99.90;;;21.95;70.31;100539.44;6160167;23;20088;-88
2021/08/18 09:29:10;;;;;;;5.88;4.68;;;20.50;99.90;;;21.90;69.75;100547.66;6158440;23;20010;-89
2021/08/18 09:31:40;;;;;;;7.95;5.25;;;20.40;99.90;;;21.84;69.32;100538.81;6133082;23;20071;-89
2021/08/18 09:34:12;;;;;;;7.28;5.07;;;20.40;99.90;;;22.16;70.93;100535.31;6157578;23;20010;-87
2021/08/18 09:36:46;;;;;;;10.20;5.78;;;20.40;99.90;;;22.04;68.81;100536.81;6133242;23;20044;-87
2021/08/18 09:39:26;;;;;;;6.15;5.32;;;20.40;99.90;;;21.87;68.28;100534.28;6155043;23;20072;-87
2021/08/18 09:41:52;;;;;;;8.13;4.80;;;20.50;99.90;;;21.79;70.11;100535.69;6130004;23;20486;-88
2021/08/18 09:44:22;;;;;;;7.63;5.38;;;20.40;99.90;;;21.53;69.04;100523.22;6155438;23;20096;-88
2021/08/18 09:47:07;;;;;;;5.68;5.18;;;20.20;99.90;;;21.49;70.49;100528.97;6132205;23;20096;-88
2021/08/18 09:49:36;;;;;;;5.97;4.90;;;20.00;99.90;;;21.17;70.90;100536.47;6159083;23;20305;-86
2021/08/18 09:52:04;;;;;;;5.57;4.68;;;19.80;99.90;;;20.92;71.66;100532.03;6165167;23;20021;-88
2021/08/18 09:54:38;;;;;;;6.53;5.22;;;19.50;99.90;;;20.63;73.32;100528.03;6157072;23;20436;-88
2021/08/18 09:57:08;;;;;;;6.20;4.63;;;19.20;99.90;;;20.47;75.29;100542.06;6155994;23;20037;-86
2021/08/18 09:59:42;;;;;;;9.27;6.00;;;19.00;99.90;;;19.77;75.32;100532.47;6157173;23;20002;-87
2021/08/18 10:02:13;;;;;;;11.95;6.00;;;18.70;99.90;;;19.67;77.52;100539.06;6131960;23;20016;-87
2021/08/18 10:04:39;;;;;;;7.82;6.45;;;18.40;99.90;;;19.44;79.17;100526.38;6156310;23;20032;-88
2021/08/18 10:07:09;;;;;;;8.50;6.03;;;18.30;99.90;;;19.40;79.05;100541.78;6130227;23;20112;-86
2021/08/18 10:09:37;;;;;;;8.32;5.97;;;18.20;99.90;;;19.33;78.83;100528.47;6156545;23;20013;-86
2021/08/18 10:12:04;;;;;;;8.43;6.50;;;18.00;99.90;;;19.21;79.00;100531.03;6132814;23;20017;-88
2021/08/18 10:14:31;;;;;;;8.40;5.57;;;17.90;99.90;;;19.20;79.83;100537.94;6156615;23;20052;-86
2021/08/18 10:16:56;;;;;;;8.52;6.40;;;17.80;99.90;;;19.10;81.25;100536.81;6157541;23;20006;-86
2021/08/18 10:19:23;;;;;;;10.63;6.80;;;17.70;99.90;;;19.03;82.00;100539.72;6132798;23;20013;-87
2021/08/18 10:21:57;;;;;;;9.75;6.45;;;17.70;99.90;;;18.90;83.00;100532.94;6157372;23;20080;-87
2021/08/18 10:24:35;;;;;;;7.28;6.53;;;17.60;99.90;;;18.86;83.67;100538.63;6159015;23;20320;-90
2021/08/18 10:27:09;;;;;;;9.23;7.30;;;17.50;99.90;;;18.95;84.56;100538.16;6160509;23;20009;-87
2021/08/18 10:29:39;;;;;;;10.93;8.00;;;17.60;99.90;;;18.90;86.56;100530.94;6158205;23;20069;-85
2021/08/18 10:32:09;;;;;;;10.75;7.78;;;17.60;99.90;;;19.17;86.33;100539.56;6133793;23;20069;-86
2021/08/18 10:34:51;;;;;;;10.98;8.35;;;17.70;99.90;;;19.51;85.44;100539.66;6157395;23;20010;-85
2021/08/18 10:37:25;;;;;;;12.25;8.40;;;18.00;99.90;;;19.63;83.34;100541.13;6156971;23;20016;-87
2021/08/18 10:39:56;;;;;;;9.88;8.13;;;18.20;99.90;;;19.73;83.03;100534.53;6131804;23;20012;-86
2021/08/18 10:42:45;;;;;;;8.80;7.35;;;18.40;99.90;;;19.91;83.13;100523.78;6132038;23;20005;-87
2021/08/18 10:45:23;;;;;;;9.98;8.20;;;18.50;99.90;;;20.27;81.30;100530.59;6131592;23;20009;-85
2021/08/18 10:47:53;;;;;;;10.20;8.48;;;18.70;99.90;;;20.09;81.68;100524.34;6133168;23;20392;-86
2021/08/18 10:50:18;;;;;;;8.98;8.02;;;18.80;99.90;;;20.69;82.55;100531.19;6157250;23;20010;-85
2021/08/18 10:52:44;;;;;;;11.68;8.45;;;19.10;99.90;;;20.98;79.28;100523.81;6132579;23;20012;-90
2021/08/18 10:55:31;;;;;;;11.82;8.65;;;19.40;99.90;;;20.88;76.13;100524.78;6132851;23;20013;-89
2021/08/18 10:58:05;;;;;;;12.80;8.43;;;19.50;99.90;;;20.73;76.30;100515.72;6161933;23;20005;-87
2021/08/18 11:00:45;;;;;;;11.48;8.60;;;19.60;99.90;;;20.97;75.64;100520.16;6158356;23;20005;-85
2021/08/18 11:03:14;;;;;;;9.20;8.30;;;19.60;99.90;;;21.04;76.44;100519.22;6158494;23;20005;-85
2021/08/18 11:05:42;;;;;;;9.88;7.85;;;19.70;99.90;;;21.50;75.48;100524.91;6142314;23;20016;-88
2021/08/18 11:08:40;;;;;;;10.73;7.97;;;19.90;99.90;;;21.50;72.16;100519.22;6151039;23;20040;-87
2021/08/18 11:11:09;;;;;;;10.82;8.40;;;20.10;99.90;;;21.42;74.45;100525.44;6158977;23;20029;-90
2021/08/18 11:14:08;;;;;;;9.52;8.20;;;20.10;99.90;;;21.49;73.50;100523.28;6159660;23;20037;-86
2021/08/18 11:16:34;;;;;;;13.38;8.75;;;20.10;99.90;;;21.48;74.85;100524.50;6156783;23;20005;-88
2021/08/18 11:19:08;;;;;;;13.52;10.05;;;20.20;99.90;;;21.36;73.59;100525.16;6131976;23;20009;-87
2021/08/18 11:21:45;;;;;;;15.40;10.82;;;20.20;99.90;;;21.38;75.47;100522.69;6157632;23;20032;-87
2021/08/18 11:24:17;;;;;;;13.80;12.13;;;20.10;99.90;;;20.98;75.11;100527.44;6132351;23;20092;-85
2021/08/18 11:26:46;;;;;;;11.25;10.05;;;19.90;99.90;;;20.98;75.53;100513.25;6141210;23;20005;-88
2021/08/18 11:29:19;;;;;;;11.77;10.55;;;19.90;99.90;;;21.16;74.99;100527.16;6143187;23;20118;-85
2021/08/18 11:31:58;;;;;;;11.60;9.40;;;19.80;99.90;;;21.22;74.93;100528.28;6133138;23;20024;-88
2021/08/18 11:34:38;;;;;;;11.40;9.85;;;19.90;99.90;;;21.16;75.63;100520.69;6133195;23;20351;-85
2021/08/18 11:37:08;;;;;;;9.73;8.63;;;19.90;99.90;;;21.38;74.75;100524.75;6158728;23;20016;-86
2021/08/18 11:39:55;;;;;;;9.55;8.50;;;19.90;99.90;;;21.03;74.95;100523.28;6157843;23;20080;-86
2021/08/18 11:42:35;;;;;;;9.65;7.72;;;19.80;99.90;;;21.22;75.59;100519.75;6157061;23;20017;-85
2021/08/18 11:45:26;;;;;;;;;;;;;;;;;;;;;
2021/08/18 11:48:25;;;;;;;7.00;5.78;;;20.10;99.90;;;21.69;71.55;100522.50;6158406;23;20495;-86
2021/08/18 11:51:02;;;;;;;8.05;6.38;;;20.30;99.90;;;21.70;71.99;100521.25;6157034;23;20009;-87
2021/08/18 11:53:38;;;;;;;;;;;;;;;;;;;;;
2021/08/18 11:56:06;;;;;;;7.38;6.43;;;20.30;99.90;;;21.91;70.61;100521.66;6157220;23;20113;-85
2021/08/18 11:58:36;;;;;;;8.68;6.57;;;20.40;99.90;;;21.50;71.52;100524.91;6161321;23;20011;-86
2021/08/18 12:01:06;;;;;;;6.22;5.43;;;20.30;99.90;;;21.47;70.17;100514.41;6162448;23;20018;-88
2021/08/18 12:03:34;;;;;;;7.10;4.90;;;20.20;99.90;;;21.36;71.11;100510.94;6135477;23;20013;-86
2021/08/18 12:06:05;;;;;;;4.75;4.22;;;20.20;99.90;;;21.38;70.42;100514.16;6161632;23;20002;-87
2021/08/18 12:12:17;;;;;;;;;;;;;;;;;;;;;
2021/08/18 12:15:28;;;;;;;;;;;;;;;;;;;;;
2021/08/18 12:18:00;;;;;;;4.13;3.70;;;20.00;99.90;;;21.02;69.24;100510.34;6163869;23;20033;-86
2021/08/18 12:20:30;;;;;;;3.42;3.13;;;19.90;99.90;;;20.87;70.10;100514.69;6138200;23;20001;-84
2021/08/18 12:22:59;;;;;;;7.13;3.40;;;19.70;99.90;;;20.80;71.46;100507.09;6163366;23;20066;-86
2021/08/18 12:25:36;;;;;;;5.15;3.40;;;19.60;99.90;;;20.86;70.13;100502.53;6163767;23;20072;-86
2021/08/18 12:28:20;;;;;;;3.33;2.97;;;19.60;99.90;;;20.96;69.95;100512.91;6166367;23;20012;-88
2021/08/18 12:31:07;;;;;;;4.18;2.78;;;19.60;99.90;;;20.81;68.62;100508.66;6165457;23;20010;-89
2021/08/18 12:33:34;;;;;;;3.53;2.88;;;19.60;99.90;;;20.99;68.97;100508.38;6166001;23;20092;-88
2021/08/18 12:36:14;;;;;;;5.45;3.65;;;19.50;99.90;;;21.00;70.72;100509.97;6142155;23;20005;-86
2021/08/18 12:38:51;;;;;;;5.15;4.65;;;19.60;99.90;;;20.66;71.78;100498.00;6146003;23;20041;-84
2021/08/18 12:41:17;;;;;;;5.15;4.63;;;19.60;99.90;;;20.87;73.03;100501.25;6178668;23;20471;-87
2021/08/18 12:43:46;;;;;;;5.55;4.82;;;19.60;99.90;;;21.25;72.30;100498.19;6161002;23;20230;-90
2021/08/18 12:46:24;;;;;;;5.40;4.90;;;19.70;99.90;;;21.24;71.06;100500.25;6163367;23;20019;-87
2021/08/18 12:48:50;;;;;;;5.93;5.00;;;19.80;99.90;;;21.09;72.32;100501.75;6137186;23;20432;-86
2021/08/18 12:51:16;;;;;;;5.78;4.25;;;19.80;99.90;;;21.20;72.57;100499.50;6163624;23;20017;-86
2021/08/18 12:53:42;;;;;;;5.93;4.07;;;19.80;99.90;;;21.33;71.86;100497.63;6135746;23;20001;-85
2021/08/18 12:56:07;;;;;;;6.55;4.28;;;19.90;99.90;;;21.40;71.71;100502.38;6130983;23;20010;-86
2021/08/18 12:58:33;;;;;;;6.32;4.43;;;20.00;99.90;;;21.39;70.75;100495.06;6133604;23;20340;-87
2021/08/18 13:00:59;;;;;;;5.63;4.80;;;20.00;99.90;;;21.47;70.85;100490.88;6134023;23;20002;-88
2021/08/18 13:03:25;;;;;;;5.75;4.22;;;20.00;99.90;;;21.64;71.58;100495.38;6134631;23;20036;-85
2021/08/18 13:05:53;;;;;;;6.78;3.55;;;20.10;99.90;;;21.70;70.45;100493.66;6133113;23;20018;-87
2021/08/18 13:08:20;;;;;;;9.18;3.92;;;20.20;99.90;;;21.75;70.43;100495.97;6157312;23;20065;-86
2021/08/18 13:10:46;;;;;;;4.95;3.78;;;20.40;99.90;;;21.47;69.78;100486.00;6157199;23;20506;-87
2021/08/18 13:13:12;;;;;;;5.28;3.53;;;20.40;99.90;;;21.32;70.83;100478.97;6155634;23;20014;-88
2021/08/18 13:15:38;;;;;;;3.92;3.30;;;20.30;99.90;;;21.36;71.18;100490.25;6156498;23;20424;-88
2021/08/18 13:18:06;;;;;;;4.10;2.53;;;20.20;99.90;;;21.80;70.23;100475.53;6158959;23;20104;-87
2021/08/18 13:20:32;;;;;;;4.65;2.63;;;20.30;99.90;;;21.46;69.22;100473.00;6136011;23;20002;-88
2021/08/18 13:23:00;;;;;;;5.78;2.85;;;20.30;99.90;;;21.70;68.45;100492.84;6136339;23;20013;-89
2021/08/18 13:25:26;;;;;;;3.38;2.42;;;20.40;99.90;;;21.97;67.77;100477.22;6160321;23;20394;-89
2021/08/18 13:27:52;;;;;;;3.60;2.38;;;20.50;99.90;;;22.13;66.29;100472.81;6160678;23;20006;-88
2021/08/18 13:30:23;;;;;;;3.88;3.03;;;20.60;99.90;;;22.07;67.72;100478.22;6161957;23;20026;-88